Flight Track Log - Related Links

Times and Time Zones

All times are in EDT time to prevent confusion due to time zone crossing. See the GJS6221 flight status page for this flight to view local times or setup timezone preferences in your user account.

Time Position Orientation Groundspeed Altitude Reporting Facility
EDT Latitude Longitude Course Direction KTS MPH feet Rate Location/Type
Fri 07:14:17 AM 45.4475 -73.7506 189° South 442 509 1,600  Level Boston Center
Fri 07:15:15 AM 45.4094 -73.8000 222° Southwest 326 375 4,500 2,824 Climbing Boston Center
Fri 07:16:16 AM 45.3547 -73.8578 217° Southwest 271 312 7,200 2,579 Climbing Boston Center
Fri 07:17:16 AM 45.3019 -73.8978 208° Southwest 271 312 9,700 2,607 Climbing Boston Center
Fri 07:18:18 AM 45.2117 -73.9572 205° Southwest 284 327 12,500 2,500 Climbing Boston Center
Fri 07:19:00 AM 44.8599 -74.1003 189° South  Level FlightAware Approximate
Fri 07:19:16 AM 45.1236 -74.0108 203° Southwest 319 367 14,700  Level Boston Center
Fri 07:20:28 AM 45.0311 -74.0672 203° Southwest 345 397 17,600 2,662 Climbing Boston Center
Fri 07:21:29 AM 44.9075 -74.1078 193° South 353 406 20,600 2,579 Climbing Boston Center
Fri 07:22:22 AM 44.8000 -74.1333 190° South 370 426 22,500 1,858 Climbing Montreal Center
Fri 07:23:22 AM 44.6833 -74.1333 180° South 390 449 24,100 1,600 Climbing Montreal Center
Fri 07:24:22 AM 44.5667 -74.1167 174° South 410 472 25,700 1,465 Climbing Montreal Center
Fri 07:25:29 AM 44.4764 -74.1014 173° South 421 484 27,200 1,261 Climbing Boston Center
Fri 07:26:40 AM 44.3581 -74.0806 173° South 427 491 28,600 1,292 Climbing Boston Center
Fri 07:27:39 AM 44.2375 -74.0597 173° South 432 497 30,000 1,500 Climbing Boston Center
Fri 07:28:40 AM 44.0856 -74.0383 174° South 426 490 31,600 976 Climbing Boston Center
Fri 07:29:42 AM 43.9650 -74.0178 173° South 426 490 32,000 198 Climbing Boston Center
Fri 07:30:41 AM 43.8467 -73.9947 172° South 431 496 32,000 -50 Level Boston Center
Fri 07:31:41 AM 43.7281 -73.9744 173° South 431 496 31,900 -496 Descending Boston Center
Fri 07:32:42 AM 43.6200 -73.9572 173° South 431 496 31,000 -966 Descending Boston Center
Fri 07:33:39 AM 43.5056 -73.9372 173° South 426 490 30,000 -969 Descending Boston Center
Fri 07:34:52 AM 43.3767 -73.9169 173° South 426 490 28,900 -1,398 Descending Boston Center
Fri 07:35:52 AM 43.2372 -73.8906 172° South 421 484 26,900 -1,736 Descending Boston Center
Fri 07:36:53 AM 43.1292 -73.8711 173° South 421 484 25,400 -1,128 Descending Boston Center
Fri 07:38:05 AM 43.0314 -73.8544 173° South 386 444 24,400 -1,015 Descending Boston Center
Fri 07:39:03 AM 42.9192 -73.8378 174° South 357 411 23,200 -1,119 Descending Boston Center
Fri 07:40:03 AM 42.8233 -73.8214 173° South 347 399 22,200 -590 Descending Boston Center
Fri 07:41:05 AM 42.7528 -73.8058 171° South 347 399 22,000 -98 Descending Boston Center
Fri 07:42:05 AM 42.6383 -73.7864 173° South 347 399 22,000 -51 Level Boston Center
Fri 07:43:03 AM 42.5572 -73.7678 170° South 345 397 21,900 -605 Descending Boston Center
Fri 07:44:04 AM 42.4617 -73.7486 172° South 340 391 20,800 -1,091 Descending Boston Center
Fri 07:45:04 AM 42.3722 -73.7300 171° South 340 391 19,700 -934 Descending Boston Center
Fri 07:46:06 AM 42.2808 -73.7083 170° South 335 386 18,900 -857 Descending Boston Center
Fri 07:47:03 AM 42.1933 -73.6900 171° South 330 380 18,000 -458 Descending Boston Center
Fri 07:48:04 AM 42.1039 -73.6742 173° South 330 380 18,000  Level Boston Center
Fri 07:49:04 AM 42.0269 -73.6586 171° South 330 380 18,000  Level Boston Center
Fri 07:50:05 AM 41.9286 -73.6931 195° South 308 354 18,000  Level Boston Center
Fri 07:51:03 AM 41.8533 -73.7222 196° South 315 362 18,000  Level Boston Center
Fri 07:52:04 AM 41.7633 -73.7567 196° South 320 368 18,000 -50 Level Boston Center
Fri 07:53:04 AM 41.6881 -73.7856 196° South 320 368 17,900 -1,033 Descending Boston Center
Fri 07:54:06 AM 41.5936 -73.8225 196° South 325 374 15,900 -2,032 Descending Boston Center
Fri 07:55:08 AM 41.5000 -73.8500 192° South 302 348 13,700 -2,066 Descending New York TRACON
Fri 07:56:08 AM 41.4333 -73.8667 191° South 299 344 11,700 -2,100 Descending New York TRACON
Fri 07:57:08 AM 41.3500 -73.8167 156° South 304 350 9,500 -2,000 Descending New York TRACON
Fri 07:58:08 AM 41.2833 -73.7500 143° Southeast 290 334 7,700 -1,650 Descending New York TRACON
Fri 07:59:08 AM 41.2167 -73.6833 143° Southeast 271 312 6,200 -1,650 Descending New York TRACON
Fri 08:00:08 AM 41.1667 -73.6333 143° Southeast 265 305 4,400 -1,158 Descending New York TRACON
Fri 08:01:02 AM 41.1000 -73.6000 159° South 270 311 4,000 -211 Descending New York TRACON
Fri 08:02:02 AM 41.0500 -73.6500 217° Southwest 262 302 4,000 -103 Level New York TRACON
Fri 08:03:56 AM 40.9333 -73.7500 213° Southwest 205 236 3,700 -517 Descending New York TRACON
Fri 08:04:56 AM 40.9000 -73.7833 217° Southwest 179 206 2,500 -1,000 Descending New York TRACON
Fri 08:05:56 AM 40.8500 -73.8167 207° Southwest 175 201 1,700 -850 Descending New York TRACON
Fri 08:06:56 AM 40.8167 -73.8500 217° Southwest 132 152 800 -900 Descending New York TRACON
Fri 08:08:00 AM 40.7772 -73.8726 180° South  Level Estimated
Fri 08:15:00 AM 40.7772 -73.8726 180° South  Level Estimated
Fri 08:16:00 AM 40.7772 -73.8726 180° South  Level Estimated

Login

Don't have an account? Register now (free) for customized features, flight alerts, and more!